createdAt,value
2018-12-15T00:00:12.312Z,12.77
2018-12-15T00:02:46.384Z,12.60
2018-12-15T00:05:20.535Z,12.50
2018-12-15T00:07:54.442Z,14.07
2018-12-15T00:10:28.209Z,13.30
2018-12-15T00:13:02.225Z,12.97
2018-12-15T00:15:36.267Z,12.77
2018-12-15T00:18:10.173Z,13.00
2018-12-15T00:20:43.982Z,12.97
2018-12-15T00:23:17.886Z,12.53
2018-12-15T00:25:51.689Z,14.43
2018-12-15T00:28:25.368Z,13.47
2018-12-15T00:30:59.201Z,12.60
2018-12-15T00:33:33.263Z,11.93
2018-12-15T00:36:07.220Z,12.23
2018-12-15T00:38:41.327Z,13.00
2018-12-15T00:41:15.240Z,12.17
2018-12-15T00:43:49.349Z,12.77
2018-12-15T00:46:23.093Z,12.50
2018-12-15T00:48:56.917Z,12.57
2018-12-15T00:51:30.966Z,12.67
2018-12-15T00:54:04.883Z,12.00
2018-12-15T00:56:39.090Z,12.63
2018-12-15T00:59:13.098Z,13.03
2018-12-15T01:01:47.114Z,13.13
2018-12-15T01:04:21.326Z,13.87
2018-12-15T01:06:55.334Z,13.23
2018-12-15T01:09:29.444Z,13.53
2018-12-15T01:12:03.152Z,13.20
2018-12-15T01:14:37.159Z,13.53
2018-12-15T01:17:11.267Z,13.37
2018-12-15T01:19:45.278Z,12.70
2018-12-15T01:22:18.983Z,13.13
2018-12-15T01:24:52.685Z,12.53
2018-12-15T01:27:26.694Z,11.53
2018-12-15T01:30:00.599Z,11.87
2018-12-15T01:32:34.387Z,11.97
2018-12-15T01:35:08.332Z,12.50
2018-12-15T01:37:42.321Z,12.10
2018-12-15T01:40:16.337Z,12.93
2018-12-15T01:42:50.442Z,12.90
2018-12-15T01:45:24.350Z,13.00
2018-12-15T01:47:58.159Z,12.90
2018-12-15T01:50:32.164Z,12.40
2018-12-15T01:53:06.071Z,11.80
2018-12-15T01:55:39.863Z,12.33
2018-12-15T01:58:13.681Z,14.87
2018-12-15T02:00:47.488Z,13.07
2018-12-15T02:03:21.545Z,13.13
2018-12-15T02:05:55.709Z,12.80
2018-12-15T02:08:29.923Z,12.37
2018-12-15T02:11:03.937Z,12.97
2018-12-15T02:13:37.634Z,12.37
2018-12-15T02:16:11.747Z,12.43
2018-12-15T02:18:45.628Z,11.83
2018-12-15T02:21:19.664Z,11.30
2018-12-15T02:23:53.471Z,12.57
2018-12-15T02:26:27.276Z,11.60
2018-12-15T02:29:01.385Z,11.63
2018-12-15T02:31:35.136Z,11.73
2018-12-15T02:34:09.201Z,11.93
2018-12-15T02:36:43.112Z,12.07
2018-12-15T02:39:17.120Z,12.00
2018-12-15T02:41:50.812Z,12.33
2018-12-15T02:44:24.623Z,11.67
2018-12-15T02:46:58.430Z,11.90
2018-12-15T02:49:32.337Z,11.73
2018-12-15T02:52:06.325Z,12.07
2018-12-15T02:54:40.355Z,11.87
2018-12-15T02:57:14.366Z,10.47
2018-12-15T02:59:48.373Z,12.97
2018-12-15T03:02:22.383Z,12.63
2018-12-15T03:04:56.395Z,11.83
2018-12-15T03:07:30.197Z,11.17
2018-12-15T03:10:05.851Z,11.77
2018-12-15T03:12:39.764Z,11.30
2018-12-15T03:15:13.561Z,12.30
2018-12-15T03:17:49.028Z,10.83
2018-12-15T03:20:23.082Z,11.70
2018-12-15T03:22:57.123Z,11.37
2018-12-15T03:25:31.000Z,11.17
2018-12-15T03:28:05.146Z,11.70
2018-12-15T03:30:39.152Z,11.43
2018-12-15T03:33:12.969Z,11.23
2018-12-15T03:35:47.681Z,12.13
2018-12-15T03:38:21.795Z,12.23
2018-12-15T03:40:55.679Z,12.33
2018-12-15T03:43:29.814Z,12.27
2018-12-15T03:46:03.824Z,12.90
2018-12-15T03:48:37.732Z,12.40
2018-12-15T03:51:11.525Z,12.53
2018-12-15T03:53:45.491Z,12.87
2018-12-15T03:56:19.553Z,12.30
2018-12-15T03:58:53.261Z,12.33
2018-12-15T04:01:27.369Z,12.73
2018-12-15T04:04:01.068Z,12.60
2018-12-15T04:06:35.192Z,11.30
2018-12-15T04:09:08.835Z,11.80
2018-12-15T04:11:42.600Z,11.47
2018-12-15T04:14:16.597Z,12.13
2018-12-15T04:16:50.404Z,11.33
2018-12-15T04:19:24.514Z,11.53
2018-12-15T04:22:20.752Z,11.83
2018-12-15T04:24:54.549Z,12.83
2018-12-15T04:27:28.415Z,11.57
2018-12-15T04:30:02.465Z,12.43
2018-12-15T04:32:36.372Z,12.23
2018-12-15T04:35:10.280Z,12.33
2018-12-15T04:37:44.086Z,12.50
2018-12-15T04:40:18.151Z,12.27
2018-12-15T04:42:52.210Z,12.23
2018-12-15T04:45:26.062Z,12.60
2018-12-15T04:48:00.102Z,12.43
2018-12-15T04:50:34.220Z,11.97
2018-12-15T04:53:08.216Z,12.50
2018-12-15T04:55:43.072Z,12.37
2018-12-15T04:58:16.789Z,12.83
2018-12-15T05:00:50.786Z,12.40
2018-12-15T05:03:24.656Z,14.00
2018-12-15T05:05:58.707Z,14.03
2018-12-15T05:08:32.506Z,15.07
2018-12-15T05:11:06.518Z,14.53
2018-12-15T05:13:40.321Z,14.20
2018-12-15T05:16:14.023Z,15.07
2018-12-15T05:18:47.849Z,15.27
2018-12-15T05:21:21.837Z,16.00
2018-12-15T05:23:55.595Z,16.10
2018-12-15T05:26:29.652Z,16.17
2018-12-15T05:29:03.456Z,16.97
2018-12-15T05:31:37.470Z,16.83
2018-12-15T05:34:11.475Z,13.73
2018-12-15T05:36:45.332Z,14.47
2018-12-15T05:39:19.255Z,14.10
2018-12-15T05:41:53.266Z,12.60
2018-12-15T05:44:27.210Z,12.73
2018-12-15T05:47:02.138Z,13.87
2018-12-15T05:49:36.057Z,14.93
2018-12-15T05:52:09.850Z,15.93
2018-12-15T05:54:43.655Z,16.53
2018-12-15T05:57:17.357Z,15.90
2018-12-15T05:59:51.367Z,16.03
2018-12-15T06:02:25.684Z,16.00
2018-12-15T06:04:59.796Z,16.70
2018-12-15T06:07:33.704Z,16.57
2018-12-15T06:10:07.921Z,16.00
2018-12-15T06:12:41.825Z,15.93
2018-12-15T06:15:15.630Z,15.33
2018-12-15T06:17:49.434Z,13.90
2018-12-15T06:20:23.343Z,13.37
2018-12-15T06:22:57.452Z,14.53
2018-12-15T06:25:31.465Z,14.77
2018-12-15T06:28:05.370Z,15.60
2018-12-15T06:30:39.277Z,13.43
2018-12-15T06:33:13.166Z,14.57
2018-12-15T06:35:47.402Z,11.83
2018-12-15T06:38:21.305Z,12.47
2018-12-15T06:40:55.215Z,13.23
2018-12-15T06:43:29.125Z,12.80
2018-12-15T06:46:03.327Z,12.97
2018-12-15T06:48:38.223Z,13.53
2018-12-15T06:51:12.301Z,13.50
2018-12-15T06:53:46.063Z,13.47
2018-12-15T06:56:22.018Z,13.83
2018-12-15T06:58:56.065Z,13.10
2018-12-15T07:01:30.054Z,14.23
2018-12-15T07:04:03.966Z,15.23
2018-12-15T07:06:37.970Z,15.97
2018-12-15T07:09:12.042Z,15.43
2018-12-15T07:11:45.784Z,15.07
2018-12-15T07:14:19.794Z,15.20
2018-12-15T07:16:53.698Z,16.10
2018-12-15T07:19:27.821Z,13.93
2018-12-15T07:22:01.829Z,13.83
2018-12-15T07:24:35.730Z,14.93
2018-12-15T07:27:09.637Z,14.33
2018-12-15T07:29:43.544Z,15.20
2018-12-15T07:32:17.553Z,14.73
2018-12-15T07:34:51.563Z,14.70
2018-12-15T07:37:25.420Z,15.13
2018-12-15T07:39:59.586Z,14.60
2018-12-15T07:42:33.388Z,14.07
2018-12-15T07:45:07.502Z,12.97
2018-12-15T07:47:41.364Z,12.13
2018-12-15T07:50:15.619Z,12.57
2018-12-15T07:52:49.372Z,14.40
2018-12-15T07:55:23.435Z,12.17
2018-12-15T07:57:57.445Z,12.23
2018-12-15T08:00:31.352Z,12.97
2018-12-15T08:03:05.264Z,13.20
2018-12-15T08:05:39.268Z,12.93
2018-12-15T08:08:13.175Z,12.67
2018-12-15T08:10:52.817Z,12.30
2018-12-15T08:13:28.677Z,12.10
2018-12-15T08:16:02.579Z,12.00
2018-12-15T08:18:36.280Z,12.97
2018-12-15T08:21:10.190Z,12.00
2018-12-15T08:23:44.156Z,12.17
2018-12-15T08:26:18.207Z,12.87
2018-12-15T08:28:52.169Z,12.33
2018-12-15T08:31:26.310Z,13.50
2018-12-15T08:34:00.199Z,12.47
2018-12-15T08:36:34.244Z,12.47
2018-12-15T08:39:08.050Z,12.90
2018-12-15T08:41:41.954Z,13.27
2018-12-15T08:44:15.760Z,13.07
2018-12-15T08:46:49.424Z,13.80
2018-12-15T08:49:23.475Z,13.73
2018-12-15T08:51:57.380Z,13.10
2018-12-15T08:54:31.389Z,13.63
2018-12-15T08:57:05.398Z,13.83
2018-12-15T08:59:39.104Z,13.93
2018-12-15T09:02:12.905Z,13.00
2018-12-15T09:04:46.882Z,12.83
2018-12-15T09:07:21.029Z,13.73
2018-12-15T09:09:54.729Z,15.27
2018-12-15T09:12:28.846Z,14.53
2018-12-15T09:15:02.954Z,15.00
2018-12-15T09:17:37.064Z,14.57
2018-12-15T09:20:10.768Z,14.83
2018-12-15T09:22:44.953Z,14.57
2018-12-15T09:25:18.889Z,15.53
2018-12-15T09:27:52.777Z,15.80
2018-12-15T09:30:26.703Z,15.27
2018-12-15T09:33:00.714Z,16.00
2018-12-15T09:35:34.517Z,16.10
2018-12-15T09:38:08.424Z,15.40
2018-12-15T09:40:42.333Z,15.37
2018-12-15T09:43:16.340Z,15.93
2018-12-15T09:45:50.317Z,15.20
2018-12-15T09:48:24.360Z,14.57
2018-12-15T09:50:58.169Z,14.47
2018-12-15T09:53:32.174Z,14.17
2018-12-15T09:56:06.153Z,14.20
2018-12-15T09:58:40.193Z,13.97
2018-12-15T10:01:14.407Z,15.17
2018-12-15T10:03:48.417Z,13.67
2018-12-15T10:06:22.372Z,13.77
2018-12-15T10:08:56.437Z,12.97
2018-12-15T10:11:30.142Z,13.77
2018-12-15T10:14:04.253Z,13.43
2018-12-15T10:16:38.263Z,13.00
2018-12-15T10:19:12.171Z,13.33
2018-12-15T10:21:46.026Z,13.33
2018-12-15T10:24:20.085Z,13.47
2018-12-15T10:26:55.213Z,13.50
2018-12-15T10:29:34.733Z,12.67
2018-12-15T10:32:14.299Z,12.87
2018-12-15T10:34:48.414Z,12.87
2018-12-15T10:37:22.279Z,12.70
2018-12-15T10:39:56.428Z,13.63
2018-12-15T10:42:30.646Z,12.73
2018-12-15T10:45:05.274Z,12.57
2018-12-15T10:47:39.224Z,13.80
2018-12-15T10:50:13.184Z,13.90
2018-12-15T10:52:47.092Z,13.67
2018-12-15T10:55:20.999Z,12.53
2018-12-15T10:57:54.803Z,13.20
2018-12-15T11:00:34.240Z,12.67
2018-12-15T11:03:08.147Z,11.90
2018-12-15T11:05:42.054Z,12.67
2018-12-15T11:08:15.938Z,12.37
2018-12-15T11:10:50.074Z,12.63
2018-12-15T11:13:23.822Z,12.37
2018-12-15T11:15:57.889Z,12.47
2018-12-15T11:18:31.757Z,13.33
2018-12-15T11:21:05.907Z,13.63
2018-12-15T11:23:40.122Z,12.93
2018-12-15T11:26:14.234Z,13.03
2018-12-15T11:28:48.141Z,13.07
2018-12-15T11:31:21.946Z,13.07
2018-12-15T11:33:56.671Z,13.73
2018-12-15T11:36:30.681Z,13.57
2018-12-15T11:39:06.772Z,13.60
2018-12-15T11:41:40.646Z,12.93
2018-12-15T11:44:14.554Z,12.50
2018-12-15T11:46:48.422Z,12.83
2018-12-15T11:49:22.718Z,12.27
2018-12-15T11:51:56.685Z,13.73
2018-12-15T11:54:30.618Z,13.23
2018-12-15T11:57:04.612Z,12.73
2018-12-15T11:59:38.662Z,12.63
2018-12-15T12:02:12.521Z,12.80
2018-12-15T12:04:46.630Z,11.80
2018-12-15T12:07:20.435Z,11.70
2018-12-15T12:09:54.445Z,12.57
2018-12-15T12:12:28.237Z,11.47
2018-12-15T12:15:02.259Z,13.07
2018-12-15T12:17:36.031Z,14.00
2018-12-15T12:20:10.176Z,13.30
2018-12-15T12:22:44.288Z,12.53
2018-12-15T12:25:18.195Z,12.57
2018-12-15T12:27:52.102Z,12.50
2018-12-15T12:30:26.935Z,12.60
2018-12-15T12:33:00.837Z,11.80
2018-12-15T12:35:34.951Z,12.30
2018-12-15T12:38:09.163Z,13.00
2018-12-15T12:40:43.073Z,12.67
2018-12-15T12:43:17.084Z,11.43
2018-12-15T12:45:51.095Z,11.50
2018-12-15T12:48:24.840Z,11.33
2018-12-15T12:50:58.802Z,11.33
2018-12-15T12:53:32.612Z,11.13
2018-12-15T12:56:06.618Z,11.90
2018-12-15T12:58:40.421Z,12.33
2018-12-15T13:01:14.431Z,12.37
2018-12-15T13:03:48.440Z,12.13
2018-12-15T13:06:22.616Z,12.00
2018-12-15T13:08:56.772Z,10.87
2018-12-15T13:11:30.783Z,11.73
2018-12-15T13:14:04.636Z,11.57
2018-12-15T13:16:38.779Z,11.17
2018-12-15T13:19:12.809Z,11.87
2018-12-15T13:21:46.915Z,16.50
2018-12-15T13:24:20.941Z,20.03
2018-12-15T13:26:59.210Z,19.70
2018-12-15T13:29:31.198Z,19.90
2018-12-15T13:32:06.129Z,19.73
2018-12-15T13:34:39.938Z,19.70
2018-12-15T13:37:13.944Z,21.17
2018-12-15T13:39:47.748Z,20.67
2018-12-15T13:42:21.656Z,19.80
2018-12-15T13:44:55.619Z,19.97
2018-12-15T13:47:29.678Z,19.13
2018-12-15T13:50:10.138Z,20.50
2018-12-15T13:52:41.498Z,20.20
2018-12-15T13:55:15.493Z,19.70
2018-12-15T13:57:49.399Z,20.13
2018-12-15T14:00:23.203Z,19.40
2018-12-15T14:02:57.114Z,18.77
2018-12-15T14:05:31.223Z,19.03
2018-12-15T14:08:05.074Z,20.10
2018-12-15T14:10:39.140Z,18.30
2018-12-15T14:13:12.880Z,17.90
2018-12-15T14:15:47.350Z,17.93
2018-12-15T14:18:21.319Z,18.47
2018-12-15T14:20:55.284Z,17.97
2018-12-15T14:23:29.289Z,17.77
2018-12-15T14:26:04.836Z,16.80
2018-12-15T14:28:38.640Z,17.23
2018-12-15T14:31:13.366Z,17.37
2018-12-15T14:33:47.543Z,16.97
2018-12-15T14:36:21.898Z,17.60
2018-12-15T14:38:55.705Z,17.43
2018-12-15T14:41:29.609Z,18.10
2018-12-15T14:44:03.337Z,17.90
2018-12-15T14:46:37.323Z,17.77
2018-12-15T14:49:11.127Z,17.40
2018-12-15T14:51:45.092Z,17.07
2018-12-15T14:54:19.248Z,17.50
2018-12-15T14:56:53.257Z,16.83
2018-12-15T14:59:27.166Z,17.87
2018-12-15T15:02:01.688Z,17.70
2018-12-15T15:04:35.593Z,17.70
2018-12-15T15:07:09.499Z,17.83
2018-12-15T15:09:43.410Z,18.03
2018-12-15T15:12:17.228Z,18.57
2018-12-15T15:14:51.223Z,18.43
2018-12-15T15:17:25.233Z,18.33
2018-12-15T15:19:59.138Z,18.83
2018-12-15T15:22:32.944Z,19.13
2018-12-15T15:25:07.060Z,16.97
2018-12-15T15:27:40.700Z,19.33
2018-12-15T15:30:15.549Z,18.90
2018-12-15T15:32:49.321Z,18.43
2018-12-15T15:35:23.400Z,18.43
2018-12-15T15:37:57.409Z,18.50
2018-12-15T15:40:31.317Z,18.30
2018-12-15T15:43:05.224Z,18.57
2018-12-15T15:45:39.336Z,18.97
2018-12-15T15:48:13.450Z,19.20
2018-12-15T15:50:47.188Z,18.40
2018-12-15T15:53:20.833Z,18.50
2018-12-15T15:55:54.765Z,19.27
2018-12-15T15:58:28.973Z,18.50
2018-12-15T16:01:02.782Z,19.23
2018-12-15T16:03:36.788Z,18.63
2018-12-15T16:06:10.798Z,18.73
2018-12-15T16:08:44.807Z,19.17
2018-12-15T16:11:18.575Z,18.97
2018-12-15T16:13:52.726Z,19.33
2018-12-15T16:16:32.997Z,19.13
2018-12-15T16:19:06.813Z,18.60
2018-12-15T16:21:40.897Z,19.40
2018-12-15T16:24:15.008Z,19.63
2018-12-15T16:26:48.813Z,19.33
2018-12-15T16:29:22.799Z,20.23
2018-12-15T16:31:56.832Z,19.37
2018-12-15T16:34:30.843Z,19.97
2018-12-15T16:37:04.852Z,18.77
2018-12-15T16:39:38.665Z,18.43
2018-12-15T16:42:12.879Z,19.20
2018-12-15T16:44:46.983Z,18.53
2018-12-15T16:47:20.740Z,19.17
2018-12-15T16:49:54.575Z,18.43
2018-12-15T16:52:29.429Z,19.03
2018-12-15T16:55:04.660Z,18.67
2018-12-15T16:57:38.571Z,19.30
2018-12-15T17:00:13.151Z,18.70
2018-12-15T17:02:47.202Z,18.47
2018-12-15T17:05:21.211Z,18.57
2018-12-15T17:07:55.116Z,17.93
2018-12-15T17:10:28.822Z,18.03
2018-12-15T17:13:02.829Z,18.17
2018-12-15T17:15:36.736Z,17.10
2018-12-15T17:18:10.606Z,16.60
2018-12-15T17:20:44.758Z,17.40
2018-12-15T17:23:18.635Z,17.23
2018-12-15T17:25:52.774Z,18.23
2018-12-15T17:28:26.644Z,17.57
2018-12-15T17:31:00.895Z,17.03
2018-12-15T17:33:34.705Z,17.63
2018-12-15T17:36:08.711Z,18.13
2018-12-15T17:38:42.515Z,18.57
2018-12-15T17:41:16.627Z,18.30
2018-12-15T17:43:50.432Z,18.13
2018-12-15T17:46:24.543Z,17.30
2018-12-15T17:48:58.554Z,17.70
2018-12-15T17:51:32.562Z,17.80
2018-12-15T17:54:06.470Z,17.03
2018-12-15T17:56:40.377Z,17.07
2018-12-15T17:59:14.284Z,16.70
2018-12-15T18:01:48.191Z,17.87
2018-12-15T18:04:22.202Z,16.60
2018-12-15T18:06:56.108Z,17.67
2018-12-15T18:09:30.016Z,18.00
2018-12-15T18:12:04.029Z,17.63
2018-12-15T18:14:37.932Z,17.80
2018-12-15T18:17:11.839Z,17.77
2018-12-15T18:19:45.645Z,17.57
2018-12-15T18:22:19.552Z,16.87
2018-12-15T18:24:53.562Z,17.50
2018-12-15T18:27:27.514Z,18.03
2018-12-15T18:30:01.580Z,16.93
2018-12-15T18:32:35.694Z,17.67
2018-12-15T18:35:09.602Z,17.73
2018-12-15T18:37:43.459Z,18.73
2018-12-15T18:40:17.516Z,17.73
2018-12-15T18:42:51.321Z,17.67
2018-12-15T18:45:25.272Z,17.17
2018-12-15T18:47:59.242Z,17.63
2018-12-15T18:50:33.247Z,16.97
2018-12-15T18:53:06.948Z,18.90
2018-12-15T18:55:40.860Z,18.47
2018-12-15T18:58:14.667Z,17.67
2018-12-15T19:00:48.466Z,17.77
2018-12-15T19:03:23.214Z,17.40
2018-12-15T19:05:57.276Z,17.50
2018-12-15T19:08:31.314Z,17.87
2018-12-15T19:11:05.324Z,17.53
2018-12-15T19:13:39.202Z,17.33
2018-12-15T19:16:13.240Z,17.53
2018-12-15T19:18:46.944Z,17.93
2018-12-15T19:21:23.067Z,17.83
2018-12-15T19:23:57.113Z,14.73
2018-12-15T19:26:31.838Z,15.47
2018-12-15T19:29:05.747Z,14.73
2018-12-15T19:31:39.652Z,13.97
2018-12-15T19:34:17.436Z,12.73
2018-12-15T19:36:49.720Z,12.80
2018-12-15T19:39:23.730Z,13.43
2018-12-15T19:41:57.535Z,12.60
2018-12-15T19:44:31.445Z,14.57
2018-12-15T19:47:05.352Z,15.33
2018-12-15T19:49:39.217Z,15.43
2018-12-15T19:52:13.265Z,14.70
2018-12-15T19:54:47.026Z,14.93
2018-12-15T19:57:21.187Z,14.77
2018-12-15T19:59:54.985Z,15.47
2018-12-15T20:02:28.791Z,16.50
2018-12-15T20:05:02.596Z,16.97
2018-12-15T20:07:36.502Z,16.77
2018-12-15T20:10:10.255Z,16.93
2018-12-15T20:12:44.317Z,17.50
2018-12-15T20:15:18.290Z,16.83
2018-12-15T20:17:52.439Z,17.20
2018-12-15T20:20:26.071Z,15.73
2018-12-15T20:22:59.946Z,14.60
2018-12-15T20:25:33.853Z,15.67
2018-12-15T20:28:07.657Z,15.90
2018-12-15T20:30:41.769Z,17.70
2018-12-15T20:33:15.638Z,17.77
2018-12-15T20:35:49.687Z,17.70
2018-12-15T20:38:23.594Z,17.70
2018-12-15T20:40:57.499Z,17.93
2018-12-15T20:43:31.407Z,19.10
2018-12-15T20:46:05.213Z,18.03
2018-12-15T20:48:39.018Z,18.37
2018-12-15T20:51:12.812Z,18.70
2018-12-15T20:53:46.732Z,18.60
2018-12-15T20:56:20.738Z,18.47
2018-12-15T20:58:54.510Z,19.07
2018-12-15T21:01:28.603Z,18.37
2018-12-15T21:04:02.563Z,19.03
2018-12-15T21:06:36.469Z,18.90
2018-12-15T21:09:10.275Z,17.97
2018-12-15T21:11:44.079Z,18.73
2018-12-15T21:14:17.887Z,19.57
2018-12-15T21:16:51.619Z,18.30
2018-12-15T21:19:25.502Z,18.67
2018-12-15T21:21:59.412Z,18.47
2018-12-15T21:24:33.206Z,18.40
2018-12-15T21:27:07.216Z,18.77
2018-12-15T21:29:41.439Z,18.50
2018-12-15T21:32:15.336Z,17.97
2018-12-15T21:34:49.259Z,18.20
2018-12-15T21:37:23.355Z,19.07
2018-12-15T21:39:57.058Z,18.00
2018-12-15T21:42:31.750Z,18.47
2018-12-15T21:45:06.203Z,18.17
2018-12-15T21:47:41.753Z,17.73
2018-12-15T21:50:15.760Z,17.93
2018-12-15T21:52:49.671Z,17.63
2018-12-15T21:55:23.471Z,18.27
2018-12-15T21:57:57.584Z,17.60
2018-12-15T22:00:31.387Z,17.00
2018-12-15T22:03:05.295Z,17.60
2018-12-15T22:05:39.307Z,17.60
2018-12-15T22:08:13.077Z,18.00
2018-12-15T22:10:47.021Z,17.77
2018-12-15T22:13:21.765Z,17.07
2018-12-15T22:15:55.803Z,17.30
2018-12-15T22:18:29.821Z,16.97
2018-12-15T22:21:03.873Z,17.17
2018-12-15T22:23:37.884Z,17.40
2018-12-15T22:26:11.900Z,17.83
2018-12-15T22:28:45.803Z,16.53
2018-12-15T22:31:19.812Z,16.80
2018-12-15T22:33:53.637Z,16.73
2018-12-15T22:36:27.635Z,17.93
2018-12-15T22:39:01.326Z,16.40
2018-12-15T22:41:35.337Z,16.20
2018-12-15T22:44:09.242Z,17.63
2018-12-15T22:46:43.253Z,15.40
2018-12-15T22:49:17.261Z,18.77
2018-12-15T22:51:51.219Z,18.20
2018-12-15T22:54:25.244Z,17.60
2018-12-15T22:57:00.626Z,17.20
2018-12-15T22:59:34.624Z,16.00
2018-12-15T23:02:08.742Z,15.93
2018-12-15T23:04:42.531Z,15.60
2018-12-15T23:07:16.659Z,14.80
2018-12-15T23:09:50.566Z,15.97
2018-12-15T23:12:24.580Z,15.80
2018-12-15T23:14:58.483Z,16.13
2018-12-15T23:17:32.389Z,15.77
2018-12-15T23:20:06.707Z,14.33
2018-12-15T23:22:40.495Z,15.00
2018-12-15T23:25:14.432Z,14.90
2018-12-15T23:27:48.325Z,14.20
2018-12-15T23:30:22.437Z,15.77
2018-12-15T23:32:56.509Z,16.47
2018-12-15T23:35:30.354Z,14.90
2018-12-15T23:38:04.365Z,11.73
2018-12-15T23:40:38.122Z,11.43
2018-12-15T23:43:12.178Z,11.27
2018-12-15T23:45:46.187Z,11.60
2018-12-15T23:48:20.048Z,12.30
2018-12-15T23:50:54.003Z,11.43
2018-12-15T23:53:28.114Z,9.63
2018-12-15T23:56:02.022Z,9.97
2018-12-15T23:58:36.136Z,8.77
